Time;durP1;ratioP1;P1;durP2;ratioP2;P2;SDS_P1;SDS_P2;PMS_P1;PMS_P2;Temp;Humidity;BMP_temperature;BMP_pressure;BME280_temperature;BME280_humidity;BME280_pressure;Samples;Min_cycle;Max_cycle;Signal;HPM_P1;HPM_P2
2023/08/11 00:02:02;;;;;;;1.55;0.85;;;;;;;26.21;48.01;101432.66;5053366;28;20045;-58
2023/08/11 00:04:29;;;;;;;1.67;0.90;;;;;;;26.23;48.02;101432.47;5053118;28;20049;-58
2023/08/11 00:06:57;;;;;;;2.00;1.00;;;;;;;26.22;48.03;101439.78;5052705;28;20049;-57
2023/08/11 00:09:26;;;;;;;2.33;1.00;;;;;;;26.23;48.06;101446.03;5053697;28;20059;-56
2023/08/11 00:11:55;;;;;;;1.70;0.85;;;;;;;26.23;48.01;101446.03;5052973;28;20060;-56
2023/08/11 00:14:22;;;;;;;1.90;0.82;;;;;;;26.23;48.09;101452.31;5052864;28;20056;-56
2023/08/11 00:16:49;;;;;;;1.25;0.70;;;;;;;26.22;48.20;101447.91;5052146;28;20446;-58
2023/08/11 00:19:17;;;;;;;1.88;0.85;;;;;;;26.23;48.10;101446.03;5053358;28;20052;-56
2023/08/11 00:21:44;;;;;;;1.90;1.00;;;;;;;26.22;48.03;101438.91;5053256;28;20058;-56
2023/08/11 00:24:11;;;;;;;1.25;0.70;;;;;;;26.22;47.99;101449.78;5052785;28;20045;-55
2023/08/11 00:26:39;;;;;;;1.25;0.63;;;;;;;26.23;48.09;101454.19;5052033;28;20049;-56
2023/08/11 00:29:06;;;;;;;1.95;1.15;;;;;;;26.22;48.06;101458.78;5034096;28;20407;-58
2023/08/11 00:31:35;;;;;;;1.30;0.73;;;;;;;26.23;48.27;101459.63;5033898;28;20045;-58
2023/08/11 00:34:03;;;;;;;2.03;1.08;;;;;;;26.23;48.12;101454.19;5033825;28;20053;-58
2023/08/11 00:36:30;;;;;;;2.15;1.10;;;;;;;26.23;48.17;101451.47;5034302;28;20049;-58
2023/08/11 00:39:00;;;;;;;1.98;0.95;;;;;;;26.23;48.25;101456.91;5033918;28;20049;-58
2023/08/11 00:41:27;;;;;;;1.90;1.00;;;;;;;26.23;48.17;101454.19;5033750;28;20049;-58
2023/08/11 00:43:55;;;;;;;1.58;0.75;;;;;;;26.23;47.97;101459.63;5033275;28;20065;-58
2023/08/11 00:46:23;;;;;;;1.92;0.93;;;;;;;26.23;48.08;101448.75;5034230;28;20045;-58
2023/08/11 00:48:51;;;;;;;1.50;0.70;;;;;;;26.23;48.15;101448.75;5033805;28;20045;-58
2023/08/11 00:51:22;;;;;;;1.85;0.95;;;;;;;26.23;48.18;101446.03;5034101;28;20068;-58
2023/08/11 00:53:50;;;;;;;1.85;0.93;;;;;;;26.23;48.17;101451.47;5033936;28;20049;-58
2023/08/11 00:56:22;;;;;;;1.88;0.90;;;;;;;26.23;48.26;101455.03;5033024;28;20061;-58
2023/08/11 00:58:50;;;;;;;;;;;;;;;26.21;48.24;101454.38;5040627;28;20519;-56
2023/08/11 01:01:18;;;;;;;2.03;0.85;;;;;;;26.23;48.21;101457.75;5051060;28;20371;-56
2023/08/11 01:03:47;;;;;;;1.65;0.80;;;;;;;26.22;48.17;101453.34;5052358;28;20060;-56
2023/08/11 01:06:35;;;;;;;2.13;1.02;;;;;;;26.22;48.15;101455.22;5051597;28;20041;-56
2023/08/11 01:09:20;;;;;;;1.48;0.95;;;;;;;26.23;48.40;101451.47;5053076;28;20060;-58
2023/08/11 01:12:13;;;;;;;1.80;1.00;;;;;;;26.23;48.33;101456.91;5054757;28;20048;-58
2023/08/11 01:15:03;;;;;;;1.80;0.90;;;;;;;26.23;48.19;101459.63;5056609;28;20063;-58
2023/08/11 01:17:32;;;;;;;1.90;0.95;;;;;;;26.23;48.28;101462.31;5056269;28;20052;-58
2023/08/11 01:20:01;;;;;;;1.83;0.93;;;;;;;26.22;48.34;101460.63;5055558;28;20045;-58
2023/08/11 01:22:32;;;;;;;1.50;0.80;;;;;;;26.22;48.29;101455.22;5056971;28;20041;-58
2023/08/11 01:25:00;;;;;;;1.50;0.70;;;;;;;26.22;48.26;101455.22;5056040;28;20044;-58
2023/08/11 01:27:28;;;;;;;1.77;0.90;;;;;;;26.22;48.27;101458.78;5056259;28;20052;-56
2023/08/11 01:29:56;;;;;;;1.75;0.90;;;;;;;26.22;48.27;101456.06;5053774;28;20057;-56
2023/08/11 01:32:23;;;;;;;1.88;0.98;;;;;;;26.23;48.32;101463.19;5054804;28;20045;-56
2023/08/11 01:34:50;;;;;;;1.90;1.00;;;;;;;26.23;48.35;101468.59;5055750;28;20061;-56
2023/08/11 01:37:18;;;;;;;1.83;0.88;;;;;;;26.23;48.27;101465.03;5054452;28;20049;-56
2023/08/11 01:39:45;;;;;;;1.45;0.70;;;;;;;26.22;48.34;101466.91;5055074;28;20502;-56
2023/08/11 01:42:12;;;;;;;1.27;0.60;;;;;;;26.23;48.41;101468.59;5056115;28;20494;-56
2023/08/11 01:44:40;;;;;;;1.92;1.13;;;;;;;26.23;48.44;101473.19;5054708;28;20057;-56
2023/08/11 01:47:09;;;;;;;1.70;1.00;;;;;;;26.23;48.37;101467.75;5054593;28;20515;-56
2023/08/11 01:49:37;;;;;;;2.17;1.05;;;;;;;26.23;48.29;101471.31;5054991;28;20052;-55
2023/08/11 01:52:05;;;;;;;2.17;0.90;;;;;;;26.23;48.43;101473.19;5054814;28;20045;-56
2023/08/11 01:54:33;;;;;;;1.20;0.60;;;;;;;26.23;48.39;101471.31;5054248;28;20061;-56
2023/08/11 01:57:01;;;;;;;1.85;0.77;;;;;;;26.23;48.39;101468.59;5055540;28;20053;-57
2023/08/11 01:59:29;;;;;;;2.00;0.95;;;;;;;26.23;48.27;101467.75;5053932;28;20064;-58
2023/08/11 02:01:56;;;;;;;1.85;1.02;;;;;;;26.24;48.42;101472.16;5054445;28;20064;-58
2023/08/11 02:04:23;;;;;;;1.63;0.75;;;;;;;26.23;48.39;101474.03;5053744;28;20052;-58
2023/08/11 02:06:51;;;;;;;1.83;0.90;;;;;;;26.23;48.39;101478.63;5055300;28;20037;-57
2023/08/11 02:09:19;;;;;;;2.10;1.25;;;;;;;26.24;48.48;101475.72;5050506;28;20061;-58
2023/08/11 02:11:47;;;;;;;2.28;1.00;;;;;;;26.23;48.44;101478.63;5035360;28;20408;-58
2023/08/11 02:14:14;;;;;;;1.88;1.17;;;;;;;26.24;48.44;101469.44;5035237;28;20403;-58
2023/08/11 02:16:41;;;;;;;1.55;0.80;;;;;;;26.24;48.26;101480.31;5051227;28;20407;-58
2023/08/11 02:19:09;;;;;;;1.65;0.95;;;;;;;26.23;48.43;101465.88;5055041;28;20045;-55
2023/08/11 02:21:39;;;;;;;1.58;0.70;;;;;;;26.22;48.49;101469.63;5054129;28;20061;-55
2023/08/11 02:24:06;;;;;;;3.00;1.20;;;;;;;26.23;48.44;101462.31;5053375;28;20056;-56
2023/08/11 02:26:33;;;;;;;1.42;0.70;;;;;;;26.23;48.44;101462.31;5054150;28;20053;-56
2023/08/11 02:29:03;;;;;;;1.48;0.82;;;;;;;26.23;48.45;101467.75;5053408;28;20447;-56
2023/08/11 02:31:32;;;;;;;1.60;0.90;;;;;;;26.23;48.45;101463.19;5054995;28;20045;-55
2023/08/11 02:34:00;;;;;;;2.08;0.90;;;;;;;26.24;48.51;101466.72;5054767;28;20049;-56
2023/08/11 02:36:27;;;;;;;2.42;1.13;;;;;;;26.23;48.53;101467.75;5053120;28;20053;-56
2023/08/11 02:38:55;;;;;;;1.83;0.90;;;;;;;26.23;48.49;101468.59;5053156;28;20056;-56
2023/08/11 02:41:22;;;;;;;2.00;1.10;;;;;;;26.24;48.43;101469.44;5054700;28;20414;-55
2023/08/11 02:43:49;;;;;;;2.67;1.20;;;;;;;26.23;48.77;101473.19;5053067;28;20438;-56
2023/08/11 02:46:17;;;;;;;2.45;1.08;;;;;;;26.23;48.48;101473.19;5054151;28;20053;-56
2023/08/11 02:48:44;;;;;;;2.15;1.10;;;;;;;26.23;48.56;101473.19;5054900;28;20511;-56
2023/08/11 02:51:11;;;;;;;2.30;1.05;;;;;;;26.24;48.48;101477.59;5054468;28;20055;-56
2023/08/11 02:53:39;;;;;;;1.63;0.90;;;;;;;26.25;48.55;101482.00;5054572;28;20051;-56
2023/08/11 02:56:09;;;;;;;2.30;1.15;;;;;;;26.23;48.63;101482.19;5052725;28;20052;-56
2023/08/11 02:58:37;;;;;;;2.58;1.10;;;;;;;26.23;48.44;101474.03;5036115;28;20041;-56
2023/08/11 03:01:04;;;;;;;1.60;0.90;;;;;;;26.24;48.48;101474.88;5034473;28;20057;-56
2023/08/11 03:03:32;;;;;;;2.10;1.10;;;;;;;26.23;48.61;101484.03;5035422;28;20076;-56
2023/08/11 03:06:00;;;;;;;2.30;0.90;;;;;;;26.24;48.56;101485.72;5035876;28;20480;-56
2023/08/11 03:08:27;;;;;;;1.63;0.85;;;;;;;26.23;48.68;101486.75;5034306;28;20045;-58
2023/08/11 03:10:55;;;;;;;2.40;1.05;;;;;;;26.22;48.63;101483.19;5034248;28;20050;-58
2023/08/11 03:13:31;;;;;;;2.25;1.10;;;;;;;26.23;48.58;101490.31;5034440;28;20053;-58
2023/08/11 03:15:59;;;;;;;1.73;0.90;;;;;;;26.23;48.67;101481.31;5034600;28;20057;-58
2023/08/11 03:18:28;;;;;;;1.60;0.80;;;;;;;26.23;48.57;101484.88;5034420;28;20060;-58
2023/08/11 03:20:58;;;;;;;2.00;1.00;;;;;;;26.23;48.68;101486.75;5034428;28;20060;-58
2023/08/11 03:23:45;;;;;;;1.92;0.77;;;;;;;26.23;48.62;101497.63;5034786;28;20065;-58
2023/08/11 03:26:13;;;;;;;2.10;0.95;;;;;;;26.23;48.50;101489.47;5033843;28;20506;-58
2023/08/11 03:28:41;;;;;;;1.63;0.80;;;;;;;26.22;48.63;101496.75;5019654;28;20526;-55
2023/08/11 03:31:09;;;;;;;1.92;1.10;;;;;;;26.23;48.62;101494.91;5033815;28;20419;-55
2023/08/11 03:33:40;;;;;;;2.00;1.00;;;;;;;26.24;48.64;101502.03;5034024;28;20064;-55
2023/08/11 03:36:11;;;;;;;1.60;0.95;;;;;;;26.24;48.69;101507.44;5032921;28;20049;-56
2023/08/11 03:38:39;;;;;;;2.28;1.15;;;;;;;26.23;48.64;101503.03;5035168;28;20053;-58
2023/08/11 03:41:06;;;;;;;1.85;1.17;;;;;;;26.23;48.63;101506.59;5033574;28;20053;-58
2023/08/11 03:43:34;;;;;;;1.83;1.05;;;;;;;26.23;48.65;101511.19;5034055;28;20049;-58
2023/08/11 03:46:01;;;;;;;2.20;1.17;;;;;;;26.24;48.78;101504.72;5034967;28;20519;-58
2023/08/11 03:48:28;;;;;;;2.00;1.00;;;;;;;26.23;48.74;101511.19;5033218;28;20050;-56
2023/08/11 03:51:01;;;;;;;2.22;1.23;;;;;;;26.22;48.40;101510.34;5033176;28;20049;-56
2023/08/11 03:53:30;;;;;;;2.07;1.07;;;;;;;26.22;48.67;101510.34;5033651;28;20424;-56
2023/08/11 03:55:58;;;;;;;1.75;0.82;;;;;;;26.23;48.74;101519.31;5033368;28;20291;-55
2023/08/11 03:58:29;;;;;;;1.80;1.00;;;;;;;26.23;48.79;101522.03;5033608;28;20050;-56
2023/08/11 04:00:57;;;;;;;1.38;0.82;;;;;;;26.23;48.67;101522.88;5033020;28;20054;-56
2023/08/11 04:03:27;;;;;;;2.40;1.20;;;;;;;26.23;48.74;101516.63;5051581;28;20049;-56
2023/08/11 04:05:55;;;;;;;1.83;0.73;;;;;;;26.23;48.82;101513.91;5052056;28;20495;-56
2023/08/11 04:08:24;;;;;;;1.58;0.90;;;;;;;26.22;48.75;101518.47;5053109;28;20060;-56
2023/08/11 04:10:53;;;;;;;2.30;1.35;;;;;;;26.23;48.84;101516.63;5052322;28;20060;-56
2023/08/11 04:13:21;;;;;;;1.88;1.15;;;;;;;26.22;48.62;101521.19;5053169;28;20052;-55
2023/08/11 04:15:51;;;;;;;1.70;1.00;;;;;;;26.23;48.70;101519.31;5051971;28;20076;-56
2023/08/11 04:18:19;;;;;;;1.65;0.88;;;;;;;26.23;48.70;101524.75;5051935;28;20060;-56
2023/08/11 04:20:47;;;;;;;1.55;0.90;;;;;;;26.22;48.72;101513.06;5052285;28;20407;-56
2023/08/11 04:23:15;;;;;;;2.08;1.08;;;;;;;26.22;48.84;101515.75;5052853;28;20059;-56
2023/08/11 04:25:43;;;;;;;1.90;1.00;;;;;;;26.22;48.91;101515.75;5052564;28;20407;-56
2023/08/11 04:28:10;;;;;;;1.95;1.00;;;;;;;26.22;48.81;101525.78;5053084;28;20045;-58
2023/08/11 04:30:38;;;;;;;1.92;1.00;;;;;;;26.23;48.88;101532.91;5051102;28;20049;-58
2023/08/11 04:33:07;;;;;;;2.03;0.93;;;;;;;26.22;48.91;101529.34;5051193;28;20049;-58
2023/08/11 04:35:36;;;;;;;2.30;1.15;;;;;;;26.22;48.88;101533.91;5051708;28;20525;-58
2023/08/11 04:38:05;;;;;;;2.03;1.00;;;;;;;26.22;48.90;101542.06;5051310;28;20049;-55
2023/08/11 04:40:34;;;;;;;2.05;1.27;;;;;;;26.22;48.89;101540.19;5052019;28;20491;-55
2023/08/11 04:43:02;;;;;;;2.05;1.08;;;;;;;26.22;48.88;101539.34;5049208;28;20507;-56
2023/08/11 04:45:35;;;;;;;1.95;1.00;;;;;;;26.22;48.85;101548.34;5042783;28;20060;-56
2023/08/11 04:48:04;;;;;;;1.63;0.88;;;;;;;26.22;48.74;101548.34;5051230;28;20056;-58
2023/08/11 04:50:34;;;;;;;1.88;1.10;;;;;;;26.22;48.92;101548.34;5050969;28;20048;-58
2023/08/11 04:53:02;;;;;;;1.92;1.02;;;;;;;26.23;48.86;101549.19;5051283;28;20045;-56
2023/08/11 04:55:31;;;;;;;1.70;1.08;;;;;;;26.23;48.86;101554.59;5051434;28;20045;-56
2023/08/11 04:58:01;;;;;;;2.20;1.10;;;;;;;26.22;48.96;101553.75;5050645;28;20045;-58
2023/08/11 05:00:29;;;;;;;1.80;1.10;;;;;;;26.22;48.95;101559.19;5032290;28;20504;-58
2023/08/11 05:02:57;;;;;;;1.40;0.80;;;;;;;26.21;48.82;101554.78;5033627;28;20037;-58
2023/08/11 05:05:26;;;;;;;1.58;0.88;;;;;;;26.21;48.88;101554.78;5033570;28;20053;-58
2023/08/11 05:07:54;;;;;;;2.13;1.23;;;;;;;26.23;48.88;101565.47;5033869;28;20523;-58
2023/08/11 05:10:21;;;;;;;1.73;1.00;;;;;;;26.22;48.81;101566.47;5033500;28;20046;-58
2023/08/11 05:12:49;;;;;;;2.55;1.25;;;;;;;26.23;48.93;101562.75;5033481;28;20053;-58
2023/08/11 05:15:16;;;;;;;2.08;1.15;;;;;;;26.23;48.90;101560.03;5033493;28;20041;-58
2023/08/11 05:17:44;;;;;;;2.08;0.90;;;;;;;26.21;49.03;101560.22;5034018;28;20052;-58
2023/08/11 05:20:14;;;;;;;1.70;0.90;;;;;;;26.22;48.99;101569.19;5033461;28;20046;-58
2023/08/11 05:22:43;;;;;;;2.10;1.15;;;;;;;26.21;48.96;101564.75;5033901;28;20046;-58
2023/08/11 05:25:11;;;;;;;1.90;1.00;;;;;;;26.22;49.09;101569.19;5033673;28;20049;-58
2023/08/11 05:27:39;;;;;;;1.83;1.10;;;;;;;26.21;48.96;101573.78;5033964;28;20046;-58
2023/08/11 05:30:08;;;;;;;1.88;1.17;;;;;;;26.21;49.10;101578.34;5033261;28;20048;-58
2023/08/11 05:32:35;;;;;;;2.38;1.10;;;;;;;26.22;49.05;101574.63;5033326;28;20049;-58
2023/08/11 05:35:03;;;;;;;2.30;1.38;;;;;;;26.21;48.84;101573.78;5033138;28;20061;-58
2023/08/11 05:37:32;;;;;;;3.55;1.27;;;;;;;26.22;48.84;101578.19;5033675;28;20050;-56
2023/08/11 05:39:59;;;;;;;2.03;1.10;;;;;;;26.22;48.94;101586.34;5033213;28;20536;-56
2023/08/11 05:42:27;;;;;;;2.45;1.17;;;;;;;26.21;48.93;101583.75;5033311;28;20052;-55
2023/08/11 05:44:54;;;;;;;3.72;1.20;;;;;;;26.22;49.06;101590.91;5033341;28;20061;-56
2023/08/11 05:47:22;;;;;;;2.33;1.23;;;;;;;26.21;48.99;101592.78;5033867;28;20050;-58
2023/08/11 05:49:51;;;;;;;2.15;1.38;;;;;;;26.22;49.03;101597.19;5033085;28;20049;-58
2023/08/11 05:52:19;;;;;;;1.85;0.98;;;;;;;26.22;48.98;101597.19;5033475;28;20045;-58
2023/08/11 05:54:46;;;;;;;1.90;1.00;;;;;;;26.22;49.05;101599.91;5032985;28;20048;-58
2023/08/11 05:57:13;;;;;;;2.63;1.10;;;;;;;26.21;49.00;101594.63;5033596;28;20384;-58
2023/08/11 05:59:41;;;;;;;2.17;1.20;;;;;;;26.22;49.06;101599.91;5050485;28;20052;-58
2023/08/11 06:02:08;;;;;;;1.85;1.02;;;;;;;26.21;49.04;101600.03;5055382;28;20056;-58
2023/08/11 06:04:36;;;;;;;2.05;1.25;;;;;;;26.23;49.09;101600.75;5055339;28;20049;-58
2023/08/11 06:07:03;;;;;;;2.50;1.38;;;;;;;26.21;49.02;101602.75;5054698;28;20059;-56
2023/08/11 06:09:31;;;;;;;2.72;1.35;;;;;;;26.21;49.09;101603.63;5053635;28;20060;-56
2023/08/11 06:11:58;;;;;;;2.05;1.00;;;;;;;26.22;49.03;101607.19;5055280;28;20411;-56
2023/08/11 06:14:25;;;;;;;2.75;1.40;;;;;;;26.22;49.24;101601.78;5055396;28;20045;-56
2023/08/11 06:16:53;;;;;;;2.33;1.25;;;;;;;26.22;49.10;101612.63;5054587;28;20045;-56
2023/08/11 06:19:20;;;;;;;2.30;1.20;;;;;;;26.21;49.08;101611.78;5055194;28;20045;-56
2023/08/11 06:21:48;;;;;;;1.77;1.00;;;;;;;26.21;49.03;101606.34;5055031;28;20049;-56
2023/08/11 06:24:15;;;;;;;3.03;1.50;;;;;;;26.22;48.82;101612.63;5055859;28;20049;-56
2023/08/11 06:26:43;;;;;;;2.80;1.33;;;;;;;26.22;49.18;101610.75;5054179;28;20056;-56
2023/08/11 06:29:11;;;;;;;1.75;0.95;;;;;;;26.21;49.12;101609.06;5054987;28;20037;-58
2023/08/11 06:31:38;;;;;;;2.60;1.20;;;;;;;26.21;48.94;101611.78;5054892;28;20411;-58
2023/08/11 06:34:05;;;;;;;2.13;1.00;;;;;;;26.21;49.06;101610.91;5054784;28;20053;-58
2023/08/11 06:36:33;;;;;;;2.05;1.30;;;;;;;26.22;49.05;101613.47;5054201;28;20495;-58
2023/08/11 06:39:00;;;;;;;2.35;1.25;;;;;;;26.22;49.04;101624.34;5055276;28;20045;-56
2023/08/11 06:41:28;;;;;;;1.70;0.93;;;;;;;26.22;49.04;101624.34;5054636;28;20411;-55
2023/08/11 06:43:56;;;;;;;1.88;1.13;;;;;;;26.23;49.02;101625.19;5055268;28;20052;-56
2023/08/11 06:46:23;;;;;;;2.58;1.30;;;;;;;26.22;49.08;101618.91;5053992;28;20056;-56
2023/08/11 06:48:51;;;;;;;2.65;1.30;;;;;;;26.23;49.18;101630.59;5054628;28;20045;-58
2023/08/11 06:51:18;;;;;;;1.85;0.90;;;;;;;26.23;49.01;101630.59;5054481;28;20052;-58
2023/08/11 06:53:45;;;;;;;1.95;1.20;;;;;;;26.22;49.14;101627.03;5054534;28;20486;-58
2023/08/11 06:56:13;;;;;;;1.98;1.10;;;;;;;26.23;49.01;101636.03;5052653;28;20052;-58
2023/08/11 06:58:40;;;;;;;2.75;1.20;;;;;;;26.22;49.11;101635.19;5054670;28;20060;-58
2023/08/11 07:01:07;;;;;;;2.67;1.17;;;;;;;26.23;49.05;101636.03;5054337;28;20419;-58
2023/08/11 07:03:35;;;;;;;2.00;1.10;;;;;;;26.23;49.12;101638.75;5054197;28;20048;-58
2023/08/11 07:06:03;;;;;;;2.00;1.05;;;;;;;26.23;49.27;101641.47;5053608;28;20495;-58
2023/08/11 07:08:30;;;;;;;2.22;0.85;;;;;;;26.24;49.18;101643.16;5054509;28;20403;-56
2023/08/11 07:10:57;;;;;;;1.80;0.82;;;;;;;26.24;49.17;101643.16;5054075;28;20426;-56
2023/08/11 07:13:25;;;;;;;2.00;1.20;;;;;;;26.23;49.03;101636.03;5047960;28;20056;-56
2023/08/11 07:15:56;;;;;;;2.00;1.20;;;;;;;26.24;49.04;101641.28;5035673;28;20049;-56
2023/08/11 07:18:24;;;;;;;2.72;1.15;;;;;;;26.24;49.03;101637.72;5035780;28;20053;-58
2023/08/11 07:20:51;;;;;;;1.80;1.00;;;;;;;26.23;48.99;101639.59;5035143;28;20391;-58
2023/08/11 07:23:18;;;;;;;2.00;1.20;;;;;;;26.24;49.08;101643.16;5035015;28;20049;-58
2023/08/11 07:25:46;;;;;;;1.90;1.08;;;;;;;26.24;49.09;101649.44;5035919;28;20049;-58
2023/08/11 07:28:13;;;;;;;2.08;1.23;;;;;;;26.24;49.08;101654.03;5035068;28;20052;-56
2023/08/11 07:30:41;;;;;;;1.90;1.10;;;;;;;26.24;49.11;101643.16;5033653;28;20037;-56
2023/08/11 07:33:08;;;;;;;2.20;1.15;;;;;;;26.25;49.03;101658.44;5034633;28;20053;-58
2023/08/11 07:35:36;;;;;;;2.85;1.30;;;;;;;26.25;49.08;101656.59;5035223;28;20064;-58
2023/08/11 07:38:04;;;;;;;1.65;1.00;;;;;;;26.24;48.87;101660.28;5035009;28;20049;-56
2023/08/11 07:40:32;;;;;;;1.90;1.20;;;;;;;26.26;49.11;101657.44;5034686;28;20038;-56
2023/08/11 07:42:59;;;;;;;1.90;0.90;;;;;;;26.24;49.15;101654.03;5034813;28;20050;-56
2023/08/11 07:45:27;;;;;;;1.65;0.93;;;;;;;26.24;49.34;101657.59;5035091;28;20042;-56
2023/08/11 07:47:54;;;;;;;2.10;1.15;;;;;;;26.24;49.08;101651.31;5035021;28;20053;-56
2023/08/11 07:50:22;;;;;;;1.90;1.00;;;;;;;26.26;49.09;101649.31;5035028;28;20045;-56
2023/08/11 07:52:49;;;;;;;2.28;1.10;;;;;;;26.26;48.99;101654.72;5034456;28;20404;-56
2023/08/11 07:55:16;;;;;;;2.03;0.90;;;;;;;26.25;49.15;101656.59;5034893;28;20384;-55
2023/08/11 07:57:44;;;;;;;2.42;1.00;;;;;;;26.25;49.13;101659.31;5034543;28;20045;-58
2023/08/11 08:00:16;;;;;;;2.22;1.20;;;;;;;26.26;49.13;101654.72;5034381;28;20041;-58
2023/08/11 08:02:44;;;;;;;1.63;1.00;;;;;;;26.25;49.08;101639.44;5034661;28;20065;-58
2023/08/11 08:05:12;;;;;;;2.05;1.27;;;;;;;26.25;49.06;101653.88;5034719;28;20045;-58
2023/08/11 08:07:40;;;;;;;2.20;1.27;;;;;;;26.25;49.11;101653.88;5034377;28;20045;-58
2023/08/11 08:10:11;;;;;;;2.78;1.30;;;;;;;26.26;49.29;101652.00;5034182;28;20038;-58
2023/08/11 08:12:40;;;;;;;2.10;1.15;;;;;;;26.25;49.18;101656.59;5034327;28;20045;-58
2023/08/11 08:15:09;;;;;;;2.33;1.23;;;;;;;26.26;49.10;101658.28;5033468;28;20057;-58
2023/08/11 08:17:37;;;;;;;1.95;1.05;;;;;;;26.27;49.08;101651.00;5033594;28;20046;-58
2023/08/11 08:20:09;;;;;;;1.73;1.10;;;;;;;26.26;49.05;101654.72;5033373;28;20045;-58
2023/08/11 08:22:36;;;;;;;2.27;1.20;;;;;;;26.27;49.03;101661.84;5033352;28;20495;-58
2023/08/11 08:25:08;;;;;;;1.92;1.05;;;;;;;26.27;48.98;101651.00;5033576;28;20057;-58
2023/08/11 08:27:37;;;;;;;2.58;1.10;;;;;;;26.27;49.13;101657.28;5033729;28;20506;-58
2023/08/11 08:30:10;;;;;;;1.90;0.98;;;;;;;26.27;49.14;101659.13;5052507;28;20041;-58
2023/08/11 08:32:39;;;;;;;1.88;0.95;;;;;;;26.26;49.09;101658.28;5052052;28;20391;-58
2023/08/11 08:35:07;;;;;;;1.90;0.98;;;;;;;26.28;49.16;101655.41;5052553;28;20064;-58
2023/08/11 08:37:35;;;;;;;2.25;0.98;;;;;;;26.28;48.99;101658.13;5052850;28;20049;-58
2023/08/11 08:40:04;;;;;;;2.65;1.30;;;;;;;26.28;49.03;101667.13;5052818;28;20372;-58
2023/08/11 08:42:31;;;;;;;2.17;1.30;;;;;;;26.28;48.96;101650.81;5052061;28;20053;-58
2023/08/11 08:45:00;;;;;;;1.85;0.98;;;;;;;26.28;49.18;101660.84;5053145;28;20045;-58
2023/08/11 08:47:28;;;;;;;2.13;1.20;;;;;;;26.28;49.23;101664.41;5053103;28;20053;-58
2023/08/11 08:49:58;;;;;;;2.42;1.50;;;;;;;26.28;49.13;101660.84;5052487;28;20047;-58
2023/08/11 08:52:26;;;;;;;1.90;1.08;;;;;;;26.27;49.03;101662.69;5051926;28;20384;-58
2023/08/11 08:54:54;;;;;;;2.10;1.15;;;;;;;26.28;49.24;101655.41;5052672;28;20041;-58
2023/08/11 08:57:25;;;;;;;1.88;1.05;;;;;;;26.29;48.89;101663.41;5052981;28;20053;-56
2023/08/11 08:59:53;;;;;;;1.90;1.20;;;;;;;26.29;49.12;101666.13;5052527;28;20053;-56
2023/08/11 09:02:27;;;;;;;1.70;0.90;;;;;;;26.28;49.18;101664.41;5036733;28;20045;-56
2023/08/11 09:04:55;;;;;;;2.08;1.00;;;;;;;26.29;49.08;101663.41;5052485;28;20048;-55
2023/08/11 09:07:22;;;;;;;1.95;1.15;;;;;;;26.29;49.34;101665.25;5050938;28;20064;-55
2023/08/11 09:09:50;;;;;;;1.83;0.93;;;;;;;26.29;49.07;101676.97;5051631;28;20045;-55
2023/08/11 09:12:17;;;;;;;1.80;1.10;;;;;;;26.30;49.16;101669.69;5053022;28;20513;-56
2023/08/11 09:14:45;;;;;;;2.22;1.20;;;;;;;26.29;49.17;101668.84;5052322;28;20056;-56
2023/08/11 09:17:12;;;;;;;2.83;1.30;;;;;;;26.29;49.23;101674.28;5052261;28;20059;-57
2023/08/11 09:19:43;;;;;;;2.13;1.00;;;;;;;26.30;49.13;101666.97;5051667;28;20045;-58
2023/08/11 09:22:10;;;;;;;2.10;1.17;;;;;;;26.29;49.22;101663.41;5051577;28;20053;-58
2023/08/11 09:24:40;;;;;;;2.10;1.20;;;;;;;26.30;49.05;101661.53;5052982;28;20068;-58
2023/08/11 09:27:07;;;;;;;1.90;0.95;;;;;;;26.31;48.97;101665.97;5052146;28;20048;-57
2023/08/11 09:29:36;;;;;;;1.88;1.02;;;;;;;26.31;49.03;101657.81;5051317;28;20053;-57
2023/08/11 09:32:06;;;;;;;1.98;1.17;;;;;;;26.30;48.93;101662.41;5050820;28;20041;-58
2023/08/11 09:34:38;;;;;;;1.98;1.30;;;;;;;26.31;49.05;101655.09;5055465;28;20446;-58
2023/08/11 09:37:06;;;;;;;1.77;0.98;;;;;;;26.31;49.07;101655.09;5056055;28;20124;-57
2023/08/11 09:39:34;;;;;;;1.95;1.00;;;;;;;26.29;49.17;101652.56;5055028;28;20419;-58
2023/08/11 09:42:03;;;;;;;2.53;1.10;;;;;;;26.31;49.00;101655.09;5056042;28;20037;-58
2023/08/11 09:44:31;;;;;;;2.38;1.17;;;;;;;26.30;49.14;101645.25;5041219;28;20487;-58
2023/08/11 09:47:00;;;;;;;2.00;0.98;;;;;;;26.31;49.02;101655.09;5037823;28;20045;-56
2023/08/11 09:49:41;;;;;;;;;;;;;;;26.30;49.13;101647.97;5038020;28;20050;-56
2023/08/11 09:52:10;;;;;;;1.90;1.10;;;;;;;26.30;49.23;101651.53;5037326;28;19921;-56
2023/08/11 09:54:42;;;;;;;2.08;1.10;;;;;;;26.31;48.91;101652.38;5037040;28;20042;-56
2023/08/11 09:57:10;;;;;;;2.47;1.17;;;;;;;26.30;49.10;101646.09;5037406;28;20049;-56
2023/08/11 09:59:39;;;;;;;2.05;1.15;;;;;;;26.30;49.04;101640.69;5036552;28;20049;-56
2023/08/11 10:02:14;;;;;;;2.03;1.23;;;;;;;26.31;49.14;101641.53;5036489;28;20053;-56
2023/08/11 10:04:48;;;;;;;1.77;0.80;;;;;;;26.30;49.13;101643.38;5036587;28;20049;-56
2023/08/11 10:07:17;;;;;;;2.85;1.20;;;;;;;26.31;49.12;101652.38;5055865;28;20053;-56
2023/08/11 10:09:46;;;;;;;1.50;0.90;;;;;;;26.31;49.19;101638.81;5055475;28;20052;-56
2023/08/11 10:12:14;;;;;;;1.67;1.05;;;;;;;26.31;49.00;101639.66;5055209;28;20037;-56
2023/08/11 10:14:42;;;;;;;2.20;1.20;;;;;;;26.30;48.91;101646.09;5054809;28;20052;-56
2023/08/11 10:17:12;;;;;;;1.50;0.80;;;;;;;26.30;49.01;101648.81;5055153;28;20048;-56
2023/08/11 10:19:40;;;;;;;2.17;1.20;;;;;;;26.30;49.02;101634.41;5055897;28;20045;-56
2023/08/11 10:22:08;;;;;;;2.10;1.20;;;;;;;26.31;48.98;101639.66;5053965;28;20052;-56
2023/08/11 10:24:37;;;;;;;2.13;1.10;;;;;;;26.32;49.03;101645.94;5054490;28;20040;-56
2023/08/11 10:27:05;;;;;;;1.92;1.10;;;;;;;26.32;48.97;101640.50;5055046;28;20055;-56
2023/08/11 10:29:37;;;;;;;2.30;1.02;;;;;;;26.32;49.02;101640.50;5054932;28;20510;-56
2023/08/11 10:32:05;;;;;;;1.90;1.08;;;;;;;26.31;48.97;101642.38;5055033;28;20045;-56
2023/08/11 10:34:33;;;;;;;2.03;1.20;;;;;;;26.32;49.00;101641.34;5054341;28;20388;-56
2023/08/11 10:37:01;;;;;;;1.73;0.88;;;;;;;26.32;48.94;101646.78;5055214;28;20045;-56
2023/08/11 10:39:28;;;;;;;2.13;1.10;;;;;;;26.33;49.04;101647.63;5055057;28;20049;-56
2023/08/11 10:41:57;;;;;;;2.65;1.20;;;;;;;26.32;49.22;101645.94;5054705;28;20037;-55
2023/08/11 10:44:29;;;;;;;2.03;1.05;;;;;;;26.32;48.96;101640.50;5052568;28;20060;-56
2023/08/11 10:47:02;;;;;;;1.92;1.00;;;;;;;26.32;48.93;101635.94;5054660;28;20049;-57
2023/08/11 10:49:35;;;;;;;1.95;1.10;;;;;;;26.32;49.03;101630.50;5054903;28;20479;-56
2023/08/11 10:52:03;;;;;;;1.58;0.93;;;;;;;26.32;48.90;101640.50;5054830;28;20057;-56
2023/08/11 10:54:31;;;;;;;1.92;1.00;;;;;;;26.32;48.96;101632.38;5035547;28;20049;-56
2023/08/11 10:57:01;;;;;;;3.35;1.30;;;;;;;26.32;48.92;101637.78;5035633;28;20045;-57
2023/08/11 10:59:30;;;;;;;1.92;1.05;;;;;;;26.33;49.07;101636.78;5049633;28;20052;-56
2023/08/11 11:02:00;;;;;;;3.92;1.23;;;;;;;26.32;49.14;101635.06;5054067;28;20044;-56
2023/08/11 11:04:32;;;;;;;2.25;1.17;;;;;;;26.32;49.02;101649.50;5054417;28;20509;-56
2023/08/11 11:07:00;;;;;;;2.40;1.15;;;;;;;26.33;48.83;101636.78;5054351;28;20041;-56
2023/08/11 11:09:28;;;;;;;1.90;1.02;;;;;;;26.32;49.08;101633.22;5054197;28;20410;-58
2023/08/11 11:11:56;;;;;;;1.73;0.90;;;;;;;26.33;48.94;101637.66;5053428;28;20399;-58
2023/08/11 11:14:27;;;;;;;2.13;1.20;;;;;;;26.32;48.82;101633.22;5054308;28;20052;-58
2023/08/11 11:17:00;;;;;;;1.85;0.93;;;;;;;26.33;48.86;101629.50;5054322;28;20059;-57
2023/08/11 11:19:29;;;;;;;1.73;0.90;;;;;;;26.32;48.95;101625.06;5054617;28;20049;-58
2023/08/11 11:21:58;;;;;;;2.00;1.20;;;;;;;26.32;48.92;101627.78;5054001;28;20112;-58
2023/08/11 11:24:25;;;;;;;2.00;1.33;;;;;;;26.33;48.95;101624.06;5054451;28;20048;-58
2023/08/11 11:26:53;;;;;;;2.28;0.93;;;;;;;26.33;49.05;101632.22;5053840;28;20049;-57
2023/08/11 11:29:23;;;;;;;1.58;1.00;;;;;;;26.33;49.03;101631.34;5053797;28;20055;-56
2023/08/11 11:31:52;;;;;;;1.65;1.00;;;;;;;26.34;48.92;101630.34;5034991;28;20048;-56
2023/08/11 11:34:22;;;;;;;2.20;1.10;;;;;;;26.34;48.95;101633.06;5035039;28;20065;-56